Latest Coastal Weather Observations for Wynyard

IDV60701

Issued at 12:31 am EDT Sunday 26 February 2017 (issued every 10 minutes, with the page automatically refreshed every 10 minutes)

About coastal observations | Map of coastal stations | Coastal observations for VIC | Marine services | Other Formats
Station Details ID: 091107 Name: WYNYARD AIRPORT Lat: -41.00 Lon: 145.73 Height: 12.0 m
Data from the previous 72 hours. | See also: Recent months at Wynyard
Date/Time
EDT
Temp
°C
Wind Pressure Rain since
9am
mm
Weather Cloud Vis
km
Sea
Height
m
Swell
Dir  Spd
kts
Gust
kts
hPa Trend Height
m
Period
s
Dir
26/12:30am 14.5 S 5 6 1026.4 - 0.2 - Partly cloudy 9 - - - -
26/12:00am 14.4 SSW 4 5 1026.5 - 0.0 - Cloudy 10 - - - -
 
Date/Time
EDT
Temp
°C
Wind Pressure Rain since
9am
mm
Weather Cloud Vis
km
Sea
Height
m
Swell
Dir  Spd
kts
Gust
kts
hPa Trend Height
m
Period
s
Dir
25/11:43pm 14.4 SSW 4 5 1026.5 - 0.0 - Partly cloudy 10 - - - -
25/11:30pm 14.5 SSW 4 5 1026.5 - 0.0 - Partly cloudy 5 - - - -
25/11:00pm 14.7 SSW 4 4 1026.4 - 0.0 - Partly cloudy 10 - - - -
25/10:30pm 14.9 S 3 4 1026.3 - 0.0 - Cloudy 10 - - - -
25/10:00pm 15.3 NNE 3 4 1026.3 - 0.0 - Cloudy 10 - - - -
25/09:30pm 15.3 S 3 3 1026.4 - 0.0 - Cloudy 10 - - - -
25/09:00pm 14.6 SSE 3 5 1026.0 - 0.0 - Cloudy 10 - - - -
25/08:30pm 15.6 N 3 4 1025.8 - 0.0 - Partly cloudy 10 - - - -
25/08:00pm 15.8 N 4 5 1025.6 - 0.0 - Partly cloudy 10 - - - -
25/07:30pm 16.3 NNE 4 5 1025.5 - 0.0 - Cloudy 10 - - - -
25/07:00pm 16.1 NNE 5 7 1025.2 - 0.0 - - 10 - - - -
25/06:30pm 16.4 NE 5 7 1025.1 - 0.0 - - 10 - - - -
25/06:00pm 17.3 NNE 7 10 1025.1 - 0.0 - - 10 - - - -
25/05:30pm 17.6 NE 7 9 1025.1 - 0.0 - - 10 - - - -
25/05:00pm 17.8 NNE 8 11 1025.4 - 0.0 - - 10 - - - -
25/04:30pm 18.2 NNE 8 11 1025.3 - 0.0 - - 10 - - - -
25/04:00pm 18.2 NE 10 13 1025.3 - 0.0 - - 10 - - - -
25/03:30pm 18.2 NE 8 11 1025.4 - 0.0 - Partly cloudy 10 - - - -
25/03:00pm 17.8 ENE 7 10 1025.8 - 0.0 - Cloudy 10 - - - -
25/02:30pm 18.0 E 7 11 1026.2 - 0.0 - Partly cloudy 10 - - - -
25/02:00pm 17.3 ENE 7 11 1026.3 - 0.0 - Cloudy 10 - - - -
25/01:30pm 17.4 E 7 11 1026.4 - 0.0 - Partly cloudy 10 - - - -
25/01:00pm 17.9 E 8 14 1026.2 - 0.0 - Cloudy 10 - - - -
25/12:30pm 18.1 E 8 13 1026.2 - 0.0 - Cloudy 10 - - - -
25/12:00pm 17.9 E 7 11 1026.2 - 0.0 - Cloudy 10 - - - -
25/11:30am 16.4 E 8 10 1026.3 - 0.0 - Cloudy 10 - - - -
25/11:00am 16.7 E 7 11 1026.3 - 0.0 - Cloudy 10 - - - -
25/10:30am 16.3 E 6 9 1026.4 - 0.0 - Cloudy 10 - - - -
25/10:00am 15.9 E 4 7 1026.3 - 0.0 - Cloudy 10 - - - -
25/09:30am 15.5 SE 7 9 1025.9 - 0.0 - Partly cloudy 10 - - - -
25/09:00am 14.5 SSW 3 5 1025.9 - 0.0 - Mostly cloudy 10 - - - -
25/08:30am 13.7 SSW 5 6 1025.7 - 0.0 - Cloudy 10 - - - -
25/08:00am 13.2 SSW 5 7 1025.6 - 0.0 - Cloudy 10 - - - -
25/07:30am 13.1 SW 6 8 1025.2 - 0.0 - Cloudy 10 - - - -
25/07:00am 13.1 SW 7 8 1024.9 - 0.0 - Cloudy 10 - - - -
25/06:30am 13.0 SW 5 7 1024.4 - 0.0 - Cloudy 10 - - - -
25/06:00am 12.9 SW 6 8 1024.1 - 0.0 - Mostly cloudy 10 - - - -
25/05:30am 12.8 SW 5 8 1023.9 - 0.0 - Cloudy 10 - - - -
25/05:00am 12.6 WSW 5 8 1023.8 - 0.0 - Cloudy 10 - - - -
25/04:30am 12.6 SSW 6 10 1023.8 - 0.0 - Cloudy 10 - - - -
25/04:00am 12.6 SSW 9 14 1023.9 - 0.0 - Cloudy 10 - - - -
25/03:30am 12.4 SSW 8 11 1023.7 - 0.0 - Cloudy 10 - - - -
25/03:00am 12.3 SSW 7 11 1023.8 - 0.0 - Cloudy 10 - - - -
25/02:30am 12.2 SSW 7 11 1023.9 - 0.0 - - 10 - - - -
25/02:00am 11.9 SSW 6 9 1023.9 - 0.0 - - 10 - - - -
25/01:30am 12.1 SSW 6 11 1023.9 - 0.0 - - 10 - - - -
25/01:00am 11.9 SSW 6 9 1023.9 - 0.0 - - 10 - - - -
25/12:30am 12.1 SW 6 11 1023.9 - 0.0 - - 10 - - - -
25/12:00am 12.0 SW 8 14 1023.7 - 0.0 - Cloudy 10 - - - -
 
Date/Time
EDT
Temp
°C
Wind Pressure Rain since
9am
mm
Weather Cloud Vis
km
Sea
Height
m
Swell
Dir  Spd
kts
Gust
kts
hPa Trend Height
m
Period
s
Dir
24/11:30pm 12.4 SW 13 21 1023.5 - 0.0 - - 10 - - - -
24/11:00pm 12.6 WSW 12 19 1023.6 - 0.0 - - 10 - - - -
24/10:30pm 12.7 SW 13 18 1023.6 - 0.0 - - 10 - - - -
24/10:00pm 13.4 SW 15 21 1023.6 - 0.0 - - 10 - - - -
24/09:30pm 13.8 SW 13 18 1023.8 - 0.0 - - 10 - - - -
24/09:00pm 13.9 SW 8 12 1023.8 - 0.0 - - 10 - - - -
24/08:30pm 14.4 SW 10 13 1023.4 - 0.0 - - 10 - - - -
24/08:00pm 14.9 SW 11 14 1023.1 - 0.0 - - 10 - - - -
24/07:30pm 15.9 SW 10 14 1022.9 - 0.0 - Partly cloudy 10 - - - -
24/07:00pm 16.2 SSW 11 18 1022.7 - 0.0 - Partly cloudy 10 - - - -
24/06:30pm 17.4 SSW 12 18 1022.4 - 0.0 - Partly cloudy 10 - - - -
24/06:00pm 18.2 SW 14 19 1021.9 - 0.0 - Mostly cloudy 10 - - - -
24/05:30pm 18.4 SW 9 11 1021.5 - 0.0 - Partly cloudy 10 - - - -
24/05:00pm 19.2 SW 13 18 1021.3 - 0.0 - Partly cloudy 10 - - - -
24/04:30pm 19.3 SW 13 19 1021.1 - 0.0 - Partly cloudy 10 - - - -
24/04:00pm 19.6 SSW 11 16 1021.0 - 0.0 - Partly cloudy 10 - - - -
24/03:30pm 21.0 SW 13 18 1021.1 - 0.0 - Partly cloudy 10 - - - -
24/03:00pm 20.7 SW 16 25 1021.4 - 0.0 - Partly cloudy 10 - - - -
24/02:57pm 20.5 SW 15 25 1021.4 - 0.0 - Partly cloudy 10 - - - -
24/02:30pm 21.4 SW 14 20 1021.4 - 0.0 - Cloudy 10 - - - -
24/02:00pm 19.4 SW 14 21 1021.4 - 0.0 - Partly cloudy 10 - - - -
24/01:30pm 18.6 SW 14 20 1021.7 - 0.0 - Partly cloudy 10 - - - -
24/01:00pm 20.1 WSW 17 24 1021.6 - 0.0 - Partly cloudy 10 - - - -
24/12:32pm 19.1 WSW 15 25 1021.7 - 0.0 - Partly cloudy 10 - - - -
24/12:30pm 19.6 WSW 13 19 1021.7 - 0.0 - Partly cloudy 10 - - - -
24/12:00pm 18.7 SW 11 18 1022.2 - 0.0 - Partly cloudy 10 - - - -
24/11:30am 17.3 WSW 15 21 1022.5 - 0.0 - Cloudy 10 - - - -
24/11:00am 17.6 SW 15 24 1022.5 - 0.0 - Partly cloudy 10 - - - -
24/10:30am 17.4 SW 9 16 1022.4 - 0.0 - Partly cloudy 10 - - - -
24/10:00am 15.7 SW 12 17 1022.6 - 0.0 - Partly cloudy 10 - - - -
24/09:30am 15.4 WSW 10 15 1022.4 - 0.0 - Cloudy 10 - - - -
24/09:00am 14.7 W 7 11 1022.2 - 0.0 - Mostly cloudy 10 - - - -
24/08:30am 13.9 WNW 8 10 1021.9 - 0.0 - Cloudy 10 - - - -
24/08:00am 12.1 WNW 7 8 1021.6 - 0.0 - Partly cloudy 10 - - - -
24/07:30am 8.4 WSW 6 7 1021.4 - 0.0 - - 10 - - - -
24/07:00am 9.1 W 6 8 1021.2 - 0.0 - Cloudy 10 - - - -
24/06:30am 7.5 W 8 9 1021.0 - 0.0 - Partly cloudy 10 - - - -
24/06:00am 7.6 W 8 9 1020.7 - 0.0 - - 10 - - - -
24/05:30am 6.3 WSW 7 8 1020.6 - 0.0 - - 10 - - - -
24/05:00am 7.1 W 6 7 1020.3 - 0.0 - - 10 - - - -
24/04:30am 8.8 W 7 8 1020.3 - 0.0 - - 10 - - - -
24/04:00am 9.9 WNW 9 11 1020.0 - 0.0 - - 10 - - - -
24/03:30am 10.6 W 11 12 1019.9 - 0.0 - - 10 - - - -
24/03:00am 10.7 W 9 10 1019.9 - 0.0 - - 10 - - - -
24/02:30am 10.7 W 9 11 1019.8 - 0.0 - - 10 - - - -
24/02:00am 11.2 WNW 9 10 1019.9 - 0.0 - - 10 - - - -
24/01:30am 11.8 W 10 12 1020.2 - 0.0 - - 10 - - - -
24/01:00am 12.0 W 10 12 1020.5 - 0.0 - - 10 - - - -
24/12:30am 12.7 W 10 12 1020.5 - 0.0 - - 10 - - - -
24/12:00am 13.2 W 11 14 1020.4 - 0.0 - - 10 - - - -
 
Date/Time
EDT
Temp
°C
Wind Pressure Rain since
9am
mm
Weather Cloud Vis
km
Sea
Height
m
Swell
Dir  Spd
kts
Gust
kts
hPa Trend Height
m
Period
s
Dir
23/11:30pm 13.4 W 10 13 1020.4 - 0.0 - - 10 - - - -
23/11:00pm 13.7 W 9 12 1020.3 - 0.0 - Partly cloudy 10 - - - -
23/10:30pm 13.8 W 10 13 1020.0 - 0.0 - - 10 - - - -
23/10:00pm 14.8 W 11 13 1019.7 - 0.0 - Partly cloudy 10 - - - -
23/09:30pm 15.4 W 10 12 1019.3 - 0.0 - Partly cloudy 10 - - - -
23/09:00pm 15.9 WNW 11 13 1018.8 - 0.0 - Partly cloudy 10 - - - -
23/08:30pm 17.3 W 11 14 1018.2 - 0.0 - Cloudy 10 - - - -
23/08:00pm 17.5 W 13 17 1017.5 - 0.0 - Cloudy 10 - - - -
23/07:30pm 18.0 W 12 15 1017.1 - 0.0 - Cloudy 10 - - - -
23/07:00pm 18.7 W 11 15 1016.6 - 0.0 - Cloudy 10 - - - -
23/06:30pm 20.1 W 14 18 1016.1 - 0.0 - Partly cloudy 10 - - - -
23/06:00pm 20.6 W 17 21 1015.6 - 0.0 - Mostly cloudy 10 - - - -
23/05:30pm 20.8 W 13 17 1015.3 - 0.0 - Partly cloudy 10 - - - -
23/05:00pm 20.8 W 13 17 1014.8 - 0.0 - Partly cloudy 10 - - - -
23/04:30pm 20.8 WNW 15 19 1014.5 - 0.0 - Partly cloudy 10 - - - -
23/04:00pm 21.2 W 13 17 1014.5 - 0.0 - Partly cloudy 10 - - - -
23/03:30pm 21.2 W 14 18 1014.4 - 0.0 - Cloudy 10 - - - -
23/03:00pm 21.0 W 13 19 1014.3 - 0.0 - Cloudy 10 - - - -
23/02:30pm 22.2 W 15 21 1014.2 - 0.0 - Partly cloudy 10 - - - -
23/02:00pm 22.4 WSW 14 19 1014.4 - 0.0 - Partly cloudy 10 - - - -
23/01:30pm 20.5 WNW 15 20 1014.4 - 0.0 - Partly cloudy 10 - - - -
23/01:00pm 20.5 WSW 13 17 1014.3 - 0.0 - Partly cloudy 10 - - - -
23/12:30pm 21.0 WNW 13 20 1014.2 - 0.0 - Partly cloudy 10 - - - -
23/12:00pm 19.6 W 17 21 1014.2 - 0.0 - Cloudy 10 - - - -
23/11:30am 21.2 WNW 13 18 1013.7 - 0.0 - Partly cloudy 10 - - - -
23/11:00am 20.8 NW 14 19 1013.6 - 0.0 - Partly cloudy 10 - - - -
23/10:30am 19.5 WNW 14 20 1013.5 - 0.0 - Partly cloudy 10 - - - -
23/10:00am 19.2 WNW 11 17 1013.2 - 0.0 - Partly cloudy 10 - - - -
23/09:30am 17.5 W 15 19 1012.8 - 0.0 - Partly cloudy 10 - - - -
23/09:00am 17.7 WNW 12 16 1012.5 - 0.0 - Cloudy 10 - - - -
23/08:30am 16.8 NW 11 16 1012.3 - 0.0 - Partly cloudy 10 - - - -
23/08:00am 16.9 WNW 9 14 1011.8 - 0.0 - Cloudy 10 - - - -
23/07:30am 16.1 WNW 8 11 1011.4 - 0.0 - Cloudy 10 - - - -
23/07:00am 15.9 WNW 7 9 1011.0 - 0.0 - Partly cloudy 10 - - - -
23/06:30am 15.7 WNW 10 13 1010.6 - 0.0 - - 10 - - - -
23/06:00am 16.2 WNW 10 13 1010.0 - 0.0 - Mostly clear 10 - - - -
23/05:30am 15.9 WNW 5 7 1009.8 - 0.0 - Partly cloudy 10 - - - -
23/05:00am 16.8 NW 5 8 1009.5 - 0.0 - Partly cloudy 10 - - - -
23/04:30am 16.2 NW 5 6 1009.2 - 0.0 - Partly cloudy 10 - - - -
23/04:00am 15.7 WNW 5 6 1009.2 - 0.0 - Partly cloudy 10 - - - -
23/03:30am 16.0 WNW 7 9 1009.2 - 0.0 - - 10 - - - -
23/03:00am 15.7 W 5 7 1008.9 - 0.0 - Mostly cloudy 10 - - - -
23/02:30am 18.1 NNE 3 6 1008.7 - 0.0 - Partly cloudy 10 - - - -
23/02:00am 17.9 SE 7 11 1008.7 - 0.0 - - 10 - - - -
23/01:30am 18.1 ESE 8 13 1008.7 - 0.0 - - 10 - - - -
23/01:00am 18.4 E 9 14 1009.1 - 0.0 - - 10 - - - -

Other Formats:

Comma delimited format used in spreadsheet applications
http://www.bom.gov.au/fwo/IDV60701/IDV60701.95957.axf

JavaScript Object Notation format (JSON) in row-major order
http://www.bom.gov.au/fwo/IDV60701/IDV60701.95957.json